sensor_id;sensor_type;location;lat;lon;timestamp;temperature;humidity
37240;DHT22;23130;48.760;9.178;2023-02-01T00:01:50;3.60;99.90
37240;DHT22;23130;48.760;9.178;2023-02-01T00:04:16;3.50;99.90
37240;DHT22;23130;48.760;9.178;2023-02-01T00:06:42;3.50;99.90
37240;DHT22;23130;48.760;9.178;2023-02-01T00:09:07;3.50;99.90
37240;DHT22;23130;48.760;9.178;2023-02-01T00:11:33;3.50;99.90
37240;DHT22;23130;48.760;9.178;2023-02-01T00:13:58;3.50;99.90
37240;DHT22;23130;48.760;9.178;2023-02-01T00:16:27;3.50;99.90
37240;DHT22;23130;48.760;9.178;2023-02-01T00:18:59;3.50;99.90
37240;DHT22;23130;48.760;9.178;2023-02-01T00:21:25;3.50;99.90
37240;DHT22;23130;48.760;9.178;2023-02-01T00:23:50;3.40;99.90
37240;DHT22;23130;48.760;9.178;2023-02-01T00:26:27;3.40;99.90
37240;DHT22;23130;48.760;9.178;2023-02-01T00:28:55;3.50;99.90
37240;DHT22;23130;48.760;9.178;2023-02-01T00:31:21;3.50;99.90
37240;DHT22;23130;48.760;9.178;2023-02-01T00:33:47;3.50;99.90
37240;DHT22;23130;48.760;9.178;2023-02-01T00:36:14;3.50;99.90
37240;DHT22;23130;48.760;9.178;2023-02-01T00:38:39;3.50;99.90
37240;DHT22;23130;48.760;9.178;2023-02-01T00:41:14;3.50;99.90
37240;DHT22;23130;48.760;9.178;2023-02-01T00:43:40;3.60;99.90
37240;DHT22;23130;48.760;9.178;2023-02-01T00:46:07;3.60;99.90
37240;DHT22;23130;48.760;9.178;2023-02-01T00:48:32;3.60;99.90
37240;DHT22;23130;48.760;9.178;2023-02-01T00:51:02;3.50;99.90
37240;DHT22;23130;48.760;9.178;2023-02-01T00:53:28;3.50;99.90
37240;DHT22;23130;48.760;9.178;2023-02-01T00:55:54;3.50;99.90
37240;DHT22;23130;48.760;9.178;2023-02-01T00:58:20;3.50;99.90
37240;DHT22;23130;48.760;9.178;2023-02-01T01:00:45;3.50;99.90
37240;DHT22;23130;48.760;9.178;2023-02-01T01:03:12;3.50;99.90
37240;DHT22;23130;48.760;9.178;2023-02-01T01:05:47;3.60;99.90
37240;DHT22;23130;48.760;9.178;2023-02-01T01:08:14;3.60;99.90
37240;DHT22;23130;48.760;9.178;2023-02-01T01:10:40;3.60;99.90
37240;DHT22;23130;48.760;9.178;2023-02-01T01:13:06;3.50;99.90
37240;DHT22;23130;48.760;9.178;2023-02-01T01:15:36;3.60;99.90
37240;DHT22;23130;48.760;9.178;2023-02-01T01:18:02;3.60;99.90
37240;DHT22;23130;48.760;9.178;2023-02-01T01:20:27;3.50;99.90
37240;DHT22;23130;48.760;9.178;2023-02-01T01:22:53;3.60;99.90
37240;DHT22;23130;48.760;9.178;2023-02-01T01:25:18;3.50;99.90
37240;DHT22;23130;48.760;9.178;2023-02-01T01:27:44;3.50;99.90
37240;DHT22;23130;48.760;9.178;2023-02-01T01:30:10;3.60;99.90
37240;DHT22;23130;48.760;9.178;2023-02-01T01:32:35;3.60;99.90
37240;DHT22;23130;48.760;9.178;2023-02-01T01:35:01;3.60;99.90
37240;DHT22;23130;48.760;9.178;2023-02-01T01:37:27;3.60;99.90
37240;DHT22;23130;48.760;9.178;2023-02-01T01:39:52;3.60;99.90
37240;DHT22;23130;48.760;9.178;2023-02-01T01:42:18;3.70;99.90
37240;DHT22;23130;48.760;9.178;2023-02-01T01:47:58;3.80;99.90
37240;DHT22;23130;48.760;9.178;2023-02-01T01:50:29;3.70;99.90
37240;DHT22;23130;48.760;9.178;2023-02-01T01:52:58;3.70;99.90
37240;DHT22;23130;48.760;9.178;2023-02-01T01:55:26;3.70;99.90
37240;DHT22;23130;48.760;9.178;2023-02-01T01:58:00;3.60;99.90
37240;DHT22;23130;48.760;9.178;2023-02-01T02:00:27;3.70;99.90
37240;DHT22;23130;48.760;9.178;2023-02-01T02:03:03;3.60;99.90
37240;DHT22;23130;48.760;9.178;2023-02-01T02:05:32;3.60;99.90
37240;DHT22;23130;48.760;9.178;2023-02-01T02:07:59;3.60;99.90
37240;DHT22;23130;48.760;9.178;2023-02-01T02:10:26;3.60;99.90
37240;DHT22;23130;48.760;9.178;2023-02-01T02:13:14;3.60;99.90
37240;DHT22;23130;48.760;9.178;2023-02-01T02:15:45;3.60;99.90
37240;DHT22;23130;48.760;9.178;2023-02-01T02:18:19;3.60;99.90
37240;DHT22;23130;48.760;9.178;2023-02-01T02:23:44;3.60;99.90
37240;DHT22;23130;48.760;9.178;2023-02-01T02:32:13;3.70;99.90
37240;DHT22;23130;48.760;9.178;2023-02-01T02:37:33;3.70;99.90
37240;DHT22;23130;48.760;9.178;2023-02-01T02:43:00;3.70;99.90
37240;DHT22;23130;48.760;9.178;2023-02-01T02:45:54;3.80;99.90
37240;DHT22;23130;48.760;9.178;2023-02-01T02:48:47;3.80;99.90
37240;DHT22;23130;48.760;9.178;2023-02-01T02:51:26;3.80;99.90
37240;DHT22;23130;48.760;9.178;2023-02-01T02:54:14;3.80;99.90
37240;DHT22;23130;48.760;9.178;2023-02-01T02:57:01;3.80;99.90
37240;DHT22;23130;48.760;9.178;2023-02-01T02:59:47;3.80;99.90
37240;DHT22;23130;48.760;9.178;2023-02-01T03:02:32;3.80;99.90
37240;DHT22;23130;48.760;9.178;2023-02-01T03:05:17;3.80;99.90
37240;DHT22;23130;48.760;9.178;2023-02-01T03:16:20;3.70;99.90
37240;DHT22;23130;48.760;9.178;2023-02-01T03:21:27;3.60;99.90
37240;DHT22;23130;48.760;9.178;2023-02-01T03:23:57;3.60;99.90
37240;DHT22;23130;48.760;9.178;2023-02-01T03:26:27;3.60;99.90
37240;DHT22;23130;48.760;9.178;2023-02-01T03:29:14;3.60;99.90
37240;DHT22;23130;48.760;9.178;2023-02-01T03:31:41;3.60;99.90
37240;DHT22;23130;48.760;9.178;2023-02-01T03:34:07;3.60;99.90
37240;DHT22;23130;48.760;9.178;2023-02-01T03:36:39;3.60;99.90
37240;DHT22;23130;48.760;9.178;2023-02-01T03:39:16;3.60;99.90
37240;DHT22;23130;48.760;9.178;2023-02-01T03:41:49;3.70;99.90
37240;DHT22;23130;48.760;9.178;2023-02-01T03:49:31;3.70;99.90
37240;DHT22;23130;48.760;9.178;2023-02-01T03:51:59;3.70;99.90
37240;DHT22;23130;48.760;9.178;2023-02-01T03:54:27;3.70;99.90
37240;DHT22;23130;48.760;9.178;2023-02-01T03:56:56;3.70;99.90
37240;DHT22;23130;48.760;9.178;2023-02-01T03:59:22;3.70;99.90
37240;DHT22;23130;48.760;9.178;2023-02-01T04:01:49;3.70;99.90
37240;DHT22;23130;48.760;9.178;2023-02-01T04:04:15;3.80;99.90
37240;DHT22;23130;48.760;9.178;2023-02-01T04:06:46;3.80;99.90
37240;DHT22;23130;48.760;9.178;2023-02-01T04:09:12;3.80;99.90
37240;DHT22;23130;48.760;9.178;2023-02-01T04:11:37;3.80;99.90
37240;DHT22;23130;48.760;9.178;2023-02-01T04:14:03;3.80;99.90
37240;DHT22;23130;48.760;9.178;2023-02-01T04:16:30;3.80;99.90
37240;DHT22;23130;48.760;9.178;2023-02-01T04:18:57;3.80;99.90
37240;DHT22;23130;48.760;9.178;2023-02-01T04:21:26;3.80;99.90
37240;DHT22;23130;48.760;9.178;2023-02-01T04:23:53;3.70;99.90
37240;DHT22;23130;48.760;9.178;2023-02-01T04:26:19;3.70;99.90
37240;DHT22;23130;48.760;9.178;2023-02-01T04:28:45;3.80;99.90
37240;DHT22;23130;48.760;9.178;2023-02-01T04:31:14;3.80;99.90
37240;DHT22;23130;48.760;9.178;2023-02-01T04:33:39;3.70;99.90
37240;DHT22;23130;48.760;9.178;2023-02-01T04:36:05;3.70;99.90
37240;DHT22;23130;48.760;9.178;2023-02-01T04:38:31;3.80;99.90
37240;DHT22;23130;48.760;9.178;2023-02-01T04:40:58;3.80;99.90
37240;DHT22;23130;48.760;9.178;2023-02-01T04:43:24;3.80;99.90
37240;DHT22;23130;48.760;9.178;2023-02-01T04:45:50;3.80;99.90
37240;DHT22;23130;48.760;9.178;2023-02-01T04:48:18;3.80;99.90
37240;DHT22;23130;48.760;9.178;2023-02-01T04:50:46;3.80;99.90
37240;DHT22;23130;48.760;9.178;2023-02-01T04:53:16;3.80;99.90
37240;DHT22;23130;48.760;9.178;2023-02-01T04:55:42;3.80;99.90
37240;DHT22;23130;48.760;9.178;2023-02-01T04:58:08;3.80;99.90
37240;DHT22;23130;48.760;9.178;2023-02-01T05:00:34;3.80;99.90
37240;DHT22;23130;48.760;9.178;2023-02-01T05:02:59;3.90;99.90
37240;DHT22;23130;48.760;9.178;2023-02-01T05:05:26;3.90;99.90
37240;DHT22;23130;48.760;9.178;2023-02-01T05:07:52;3.90;99.90
37240;DHT22;23130;48.760;9.178;2023-02-01T05:10:17;3.90;99.90
37240;DHT22;23130;48.760;9.178;2023-02-01T05:12:46;4.00;99.90
37240;DHT22;23130;48.760;9.178;2023-02-01T05:15:30;4.00;99.90
37240;DHT22;23130;48.760;9.178;2023-02-01T05:17:59;4.00;99.90
37240;DHT22;23130;48.760;9.178;2023-02-01T05:20:25;4.00;99.90
37240;DHT22;23130;48.760;9.178;2023-02-01T05:22:51;4.00;99.90
37240;DHT22;23130;48.760;9.178;2023-02-01T05:25:16;4.00;99.90
37240;DHT22;23130;48.760;9.178;2023-02-01T05:27:42;4.00;99.90
37240;DHT22;23130;48.760;9.178;2023-02-01T05:30:08;4.00;99.90
37240;DHT22;23130;48.760;9.178;2023-02-01T05:32:34;4.00;99.90
37240;DHT22;23130;48.760;9.178;2023-02-01T05:35:02;4.00;99.90
37240;DHT22;23130;48.760;9.178;2023-02-01T05:37:28;4.00;99.90
37240;DHT22;23130;48.760;9.178;2023-02-01T05:39:53;4.10;99.90
37240;DHT22;23130;48.760;9.178;2023-02-01T05:42:19;4.10;99.90
37240;DHT22;23130;48.760;9.178;2023-02-01T05:44:44;4.10;99.90
37240;DHT22;23130;48.760;9.178;2023-02-01T05:47:10;4.00;99.90
37240;DHT22;23130;48.760;9.178;2023-02-01T05:49:36;4.00;99.90
37240;DHT22;23130;48.760;9.178;2023-02-01T05:52:02;4.00;99.90
37240;DHT22;23130;48.760;9.178;2023-02-01T05:54:27;4.00;99.90
37240;DHT22;23130;48.760;9.178;2023-02-01T05:56:53;4.00;99.90
37240;DHT22;23130;48.760;9.178;2023-02-01T05:59:19;4.00;99.90
37240;DHT22;23130;48.760;9.178;2023-02-01T06:01:44;4.00;99.90
37240;DHT22;23130;48.760;9.178;2023-02-01T06:04:10;3.90;99.90
37240;DHT22;23130;48.760;9.178;2023-02-01T06:06:35;3.90;99.90
37240;DHT22;23130;48.760;9.178;2023-02-01T06:09:02;3.80;99.90
37240;DHT22;23130;48.760;9.178;2023-02-01T06:11:28;3.80;99.90
37240;DHT22;23130;48.760;9.178;2023-02-01T06:13:54;3.70;99.90
37240;DHT22;23130;48.760;9.178;2023-02-01T06:16:21;3.60;99.90
37240;DHT22;23130;48.760;9.178;2023-02-01T06:18:47;3.60;99.90
37240;DHT22;23130;48.760;9.178;2023-02-01T06:21:12;3.60;99.90
37240;DHT22;23130;48.760;9.178;2023-02-01T06:23:39;3.60;99.90
37240;DHT22;23130;48.760;9.178;2023-02-01T06:26:06;3.60;99.90
37240;DHT22;23130;48.760;9.178;2023-02-01T06:28:34;3.60;99.90
37240;DHT22;23130;48.760;9.178;2023-02-01T06:31:05;3.60;99.90
37240;DHT22;23130;48.760;9.178;2023-02-01T06:33:32;3.70;99.90
37240;DHT22;23130;48.760;9.178;2023-02-01T06:36:00;3.70;99.90
37240;DHT22;23130;48.760;9.178;2023-02-01T06:38:27;3.70;99.90
37240;DHT22;23130;48.760;9.178;2023-02-01T06:40:54;3.70;99.90
37240;DHT22;23130;48.760;9.178;2023-02-01T06:43:21;3.70;99.90
37240;DHT22;23130;48.760;9.178;2023-02-01T06:45:47;3.70;99.90
37240;DHT22;23130;48.760;9.178;2023-02-01T06:48:12;3.80;99.90
37240;DHT22;23130;48.760;9.178;2023-02-01T06:50:38;3.80;99.90
37240;DHT22;23130;48.760;9.178;2023-02-01T06:53:03;3.80;99.90
37240;DHT22;23130;48.760;9.178;2023-02-01T06:55:29;3.80;99.90
37240;DHT22;23130;48.760;9.178;2023-02-01T06:57:55;3.90;99.90
37240;DHT22;23130;48.760;9.178;2023-02-01T07:00:22;4.00;99.90
37240;DHT22;23130;48.760;9.178;2023-02-01T07:02:48;4.10;99.90
37240;DHT22;23130;48.760;9.178;2023-02-01T07:05:13;4.10;99.90
37240;DHT22;23130;48.760;9.178;2023-02-01T07:07:39;4.10;99.90
37240;DHT22;23130;48.760;9.178;2023-02-01T07:10:05;4.20;99.90
37240;DHT22;23130;48.760;9.178;2023-02-01T07:12:30;4.20;99.90
37240;DHT22;23130;48.760;9.178;2023-02-01T07:14:56;4.20;99.90
37240;DHT22;23130;48.760;9.178;2023-02-01T07:17:22;4.20;99.90
37240;DHT22;23130;48.760;9.178;2023-02-01T07:19:48;4.20;99.90
37240;DHT22;23130;48.760;9.178;2023-02-01T07:22:16;4.30;99.90
37240;DHT22;23130;48.760;9.178;2023-02-01T07:24:42;4.30;99.90
37240;DHT22;23130;48.760;9.178;2023-02-01T07:27:07;4.30;99.90
37240;DHT22;23130;48.760;9.178;2023-02-01T07:29:33;4.30;99.90
37240;DHT22;23130;48.760;9.178;2023-02-01T07:31:58;4.30;99.90
37240;DHT22;23130;48.760;9.178;2023-02-01T07:34:25;4.30;99.90
37240;DHT22;23130;48.760;9.178;2023-02-01T07:36:51;4.30;99.90
37240;DHT22;23130;48.760;9.178;2023-02-01T07:39:17;4.30;99.90
37240;DHT22;23130;48.760;9.178;2023-02-01T07:41:42;4.40;99.90
37240;DHT22;23130;48.760;9.178;2023-02-01T07:44:08;4.40;99.90
37240;DHT22;23130;48.760;9.178;2023-02-01T07:46:33;4.40;99.90
37240;DHT22;23130;48.760;9.178;2023-02-01T07:48:59;4.40;99.90
37240;DHT22;23130;48.760;9.178;2023-02-01T07:51:24;4.50;99.90
37240;DHT22;23130;48.760;9.178;2023-02-01T07:53:50;4.60;99.90
37240;DHT22;23130;48.760;9.178;2023-02-01T07:56:18;4.70;99.90
37240;DHT22;23130;48.760;9.178;2023-02-01T07:58:48;4.80;99.90
37240;DHT22;23130;48.760;9.178;2023-02-01T08:01:20;4.80;99.90
37240;DHT22;23130;48.760;9.178;2023-02-01T08:04:08;4.90;99.90
37240;DHT22;23130;48.760;9.178;2023-02-01T08:06:34;4.90;99.90
37240;DHT22;23130;48.760;9.178;2023-02-01T08:09:00;5.00;99.90
37240;DHT22;23130;48.760;9.178;2023-02-01T08:11:27;5.00;99.90
37240;DHT22;23130;48.760;9.178;2023-02-01T08:13:53;5.00;99.90
37240;DHT22;23130;48.760;9.178;2023-02-01T08:16:19;5.00;99.90
37240;DHT22;23130;48.760;9.178;2023-02-01T08:18:45;5.00;99.90
37240;DHT22;23130;48.760;9.178;2023-02-01T08:21:14;5.00;99.90
37240;DHT22;23130;48.760;9.178;2023-02-01T08:23:41;5.00;99.90
37240;DHT22;23130;48.760;9.178;2023-02-01T08:26:20;5.00;99.90
37240;DHT22;23130;48.760;9.178;2023-02-01T08:28:51;5.10;99.90
37240;DHT22;23130;48.760;9.178;2023-02-01T08:31:18;5.10;99.90
37240;DHT22;23130;48.760;9.178;2023-02-01T08:33:50;5.10;99.90
37240;DHT22;23130;48.760;9.178;2023-02-01T08:36:16;5.10;99.90
37240;DHT22;23130;48.760;9.178;2023-02-01T08:38:42;5.30;99.90
37240;DHT22;23130;48.760;9.178;2023-02-01T08:41:16;5.40;99.90
37240;DHT22;23130;48.760;9.178;2023-02-01T08:43:42;5.50;99.90
37240;DHT22;23130;48.760;9.178;2023-02-01T08:46:09;5.60;99.90
37240;DHT22;23130;48.760;9.178;2023-02-01T08:48:35;5.70;99.90
37240;DHT22;23130;48.760;9.178;2023-02-01T08:51:02;5.90;99.90
37240;DHT22;23130;48.760;9.178;2023-02-01T08:53:28;6.00;99.90
37240;DHT22;23130;48.760;9.178;2023-02-01T08:55:54;6.00;99.90
37240;DHT22;23130;48.760;9.178;2023-02-01T08:58:19;6.10;99.90
37240;DHT22;23130;48.760;9.178;2023-02-01T09:00:47;6.00;99.90
37240;DHT22;23130;48.760;9.178;2023-02-01T09:03:13;6.00;99.90
37240;DHT22;23130;48.760;9.178;2023-02-01T09:05:39;5.90;99.90
37240;DHT22;23130;48.760;9.178;2023-02-01T09:08:05;5.90;99.90
37240;DHT22;23130;48.760;9.178;2023-02-01T09:10:31;5.90;99.90
37240;DHT22;23130;48.760;9.178;2023-02-01T09:12:57;5.80;99.90
37240;DHT22;23130;48.760;9.178;2023-02-01T09:15:22;5.70;99.90
37240;DHT22;23130;48.760;9.178;2023-02-01T09:17:48;5.70;99.90
37240;DHT22;23130;48.760;9.178;2023-02-01T09:20:14;5.60;99.90
37240;DHT22;23130;48.760;9.178;2023-02-01T09:22:40;5.60;99.90
37240;DHT22;23130;48.760;9.178;2023-02-01T09:25:06;5.50;99.90
37240;DHT22;23130;48.760;9.178;2023-02-01T09:27:33;5.50;99.90
37240;DHT22;23130;48.760;9.178;2023-02-01T09:29:58;5.50;99.90
37240;DHT22;23130;48.760;9.178;2023-02-01T09:32:24;5.50;99.90
37240;DHT22;23130;48.760;9.178;2023-02-01T09:34:51;5.50;99.90
37240;DHT22;23130;48.760;9.178;2023-02-01T09:37:17;5.70;99.90
37240;DHT22;23130;48.760;9.178;2023-02-01T09:39:42;5.80;99.90
37240;DHT22;23130;48.760;9.178;2023-02-01T09:45:14;6.30;99.90
37240;DHT22;23130;48.760;9.178;2023-02-01T09:47:53;6.60;99.90
37240;DHT22;23130;48.760;9.178;2023-02-01T09:50:28;6.80;99.90
37240;DHT22;23130;48.760;9.178;2023-02-01T09:53:03;6.90;99.90
37240;DHT22;23130;48.760;9.178;2023-02-01T09:55:50;7.10;99.90
37240;DHT22;23130;48.760;9.178;2023-02-01T10:00:54;7.20;99.90
37240;DHT22;23130;48.760;9.178;2023-02-01T10:03:20;7.10;99.90
37240;DHT22;23130;48.760;9.178;2023-02-01T10:06:06;7.00;99.90
37240;DHT22;23130;48.760;9.178;2023-02-01T10:11:50;7.00;99.90
37240;DHT22;23130;48.760;9.178;2023-02-01T10:20:30;6.80;99.90
37240;DHT22;23130;48.760;9.178;2023-02-01T10:26:01;6.90;99.90
37240;DHT22;23130;48.760;9.178;2023-02-01T10:28:32;7.00;99.90
37240;DHT22;23130;48.760;9.178;2023-02-01T10:30:59;7.10;99.90
37240;DHT22;23130;48.760;9.178;2023-02-01T10:33:44;7.10;99.90
37240;DHT22;23130;48.760;9.178;2023-02-01T10:36:31;7.30;99.90
37240;DHT22;23130;48.760;9.178;2023-02-01T10:38:58;7.30;99.90
37240;DHT22;23130;48.760;9.178;2023-02-01T10:41:33;7.40;99.90
37240;DHT22;23130;48.760;9.178;2023-02-01T10:44:02;7.30;99.90
37240;DHT22;23130;48.760;9.178;2023-02-01T10:46:29;7.30;99.90
37240;DHT22;23130;48.760;9.178;2023-02-01T10:48:58;7.20;99.90
37240;DHT22;23130;48.760;9.178;2023-02-01T10:52:12;7.30;99.90
37240;DHT22;23130;48.760;9.178;2023-02-01T10:54:20;7.30;99.90
37240;DHT22;23130;48.760;9.178;2023-02-01T10:56:47;7.30;99.90
37240;DHT22;23130;48.760;9.178;2023-02-01T10:59:34;7.40;99.90
37240;DHT22;23130;48.760;9.178;2023-02-01T11:02:15;7.30;99.90
37240;DHT22;23130;48.760;9.178;2023-02-01T11:04:41;7.20;99.90
37240;DHT22;23130;48.760;9.178;2023-02-01T11:07:12;7.10;99.90
37240;DHT22;23130;48.760;9.178;2023-02-01T11:09:41;7.10;99.90
37240;DHT22;23130;48.760;9.178;2023-02-01T11:12:24;7.10;99.90
37240;DHT22;23130;48.760;9.178;2023-02-01T11:14:50;7.00;99.90
37240;DHT22;23130;48.760;9.178;2023-02-01T11:19:59;7.10;99.90
37240;DHT22;23130;48.760;9.178;2023-02-01T11:22:26;7.10;99.90
37240;DHT22;23130;48.760;9.178;2023-02-01T11:24:53;7.10;99.90
37240;DHT22;23130;48.760;9.178;2023-02-01T11:27:21;7.10;99.90
37240;DHT22;23130;48.760;9.178;2023-02-01T11:29:51;7.10;99.90
37240;DHT22;23130;48.760;9.178;2023-02-01T11:32:18;7.10;99.90
37240;DHT22;23130;48.760;9.178;2023-02-01T11:34:54;7.00;99.90
37240;DHT22;23130;48.760;9.178;2023-02-01T11:37:27;7.20;99.90
37240;DHT22;23130;48.760;9.178;2023-02-01T11:40:27;7.40;99.90
37240;DHT22;23130;48.760;9.178;2023-02-01T11:42:59;7.30;99.90
37240;DHT22;23130;48.760;9.178;2023-02-01T11:45:28;7.40;99.90
37240;DHT22;23130;48.760;9.178;2023-02-01T11:47:55;7.40;99.90
37240;DHT22;23130;48.760;9.178;2023-02-01T11:50:33;7.30;99.90
37240;DHT22;23130;48.760;9.178;2023-02-01T12:01:10;7.40;99.90
37240;DHT22;23130;48.760;9.178;2023-02-01T12:06:21;7.70;99.90
37240;DHT22;23130;48.760;9.178;2023-02-01T12:09:26;7.60;99.90
37240;DHT22;23130;48.760;9.178;2023-02-01T12:12:19;7.30;99.90
37240;DHT22;23130;48.760;9.178;2023-02-01T12:20:17;7.00;99.90
37240;DHT22;23130;48.760;9.178;2023-02-01T12:22:59;7.00;99.90
37240;DHT22;23130;48.760;9.178;2023-02-01T12:31:10;7.00;99.90
37240;DHT22;23130;48.760;9.178;2023-02-01T12:39:47;6.80;99.90
37240;DHT22;23130;48.760;9.178;2023-02-01T12:42:25;6.70;99.90
37240;DHT22;23130;48.760;9.178;2023-02-01T12:47:37;6.50;99.90
37240;DHT22;23130;48.760;9.178;2023-02-01T12:50:18;6.40;99.90
37240;DHT22;23130;48.760;9.178;2023-02-01T12:52:49;6.50;99.90
37240;DHT22;23130;48.760;9.178;2023-02-01T12:55:33;6.40;99.90
37240;DHT22;23130;48.760;9.178;2023-02-01T12:58:29;6.40;99.90
37240;DHT22;23130;48.760;9.178;2023-02-01T13:01:07;6.30;99.90
37240;DHT22;23130;48.760;9.178;2023-02-01T13:04:16;6.30;99.90
37240;DHT22;23130;48.760;9.178;2023-02-01T13:11:55;6.20;99.90
37240;DHT22;23130;48.760;9.178;2023-02-01T13:14:49;6.20;99.90
37240;DHT22;23130;48.760;9.178;2023-02-01T13:17:26;6.20;99.90
37240;DHT22;23130;48.760;9.178;2023-02-01T13:20:24;6.10;99.90
37240;DHT22;23130;48.760;9.178;2023-02-01T13:22:59;6.10;99.90
37240;DHT22;23130;48.760;9.178;2023-02-01T13:25:31;6.30;99.90
37240;DHT22;23130;48.760;9.178;2023-02-01T13:28:04;6.30;99.90
37240;DHT22;23130;48.760;9.178;2023-02-01T13:33:40;6.30;99.90
37240;DHT22;23130;48.760;9.178;2023-02-01T13:41:42;6.40;99.90
37240;DHT22;23130;48.760;9.178;2023-02-01T13:44:37;6.50;99.90
37240;DHT22;23130;48.760;9.178;2023-02-01T13:47:32;6.40;99.90
37240;DHT22;23130;48.760;9.178;2023-02-01T13:50:13;6.40;99.90
37240;DHT22;23130;48.760;9.178;2023-02-01T13:53:02;6.30;99.90
37240;DHT22;23130;48.760;9.178;2023-02-01T13:55:35;6.20;99.90
37240;DHT22;23130;48.760;9.178;2023-02-01T14:01:35;6.20;99.90
37240;DHT22;23130;48.760;9.178;2023-02-01T14:04:05;6.20;99.90
37240;DHT22;23130;48.760;9.178;2023-02-01T14:09:16;6.10;99.90
37240;DHT22;23130;48.760;9.178;2023-02-01T14:19:28;6.30;99.90
37240;DHT22;23130;48.760;9.178;2023-02-01T14:21:56;6.30;99.90
37240;DHT22;23130;48.760;9.178;2023-02-01T14:24:36;6.30;99.90
37240;DHT22;23130;48.760;9.178;2023-02-01T14:29:38;6.30;99.90
37240;DHT22;23130;48.760;9.178;2023-02-01T14:32:24;6.30;99.90
37240;DHT22;23130;48.760;9.178;2023-02-01T14:34:56;6.20;99.90
37240;DHT22;23130;48.760;9.178;2023-02-01T14:37:26;6.30;99.90
37240;DHT22;23130;48.760;9.178;2023-02-01T14:40:05;6.30;99.90
37240;DHT22;23130;48.760;9.178;2023-02-01T14:42:44;6.20;99.90
37240;DHT22;23130;48.760;9.178;2023-02-01T15:01:24;6.10;99.90
37240;DHT22;23130;48.760;9.178;2023-02-01T15:04:09;6.10;99.90
37240;DHT22;23130;48.760;9.178;2023-02-01T15:06:39;6.10;99.90
37240;DHT22;23130;48.760;9.178;2023-02-01T15:09:16;6.10;99.90
37240;DHT22;23130;48.760;9.178;2023-02-01T15:14:46;6.10;99.90
37240;DHT22;23130;48.760;9.178;2023-02-01T15:17:19;6.10;99.90
37240;DHT22;23130;48.760;9.178;2023-02-01T15:20:03;6.10;99.90
37240;DHT22;23130;48.760;9.178;2023-02-01T15:22:30;6.00;99.90
37240;DHT22;23130;48.760;9.178;2023-02-01T15:25:00;6.00;99.90
37240;DHT22;23130;48.760;9.178;2023-02-01T15:27:26;6.00;99.90
37240;DHT22;23130;48.760;9.178;2023-02-01T15:29:52;6.00;99.90
37240;DHT22;23130;48.760;9.178;2023-02-01T15:32:29;5.90;99.90
37240;DHT22;23130;48.760;9.178;2023-02-01T15:34:59;5.90;99.90
37240;DHT22;23130;48.760;9.178;2023-02-01T15:37:26;5.90;99.90
37240;DHT22;23130;48.760;9.178;2023-02-01T15:42:40;5.80;99.90
37240;DHT22;23130;48.760;9.178;2023-02-01T15:45:25;5.90;99.90
37240;DHT22;23130;48.760;9.178;2023-02-01T15:47:53;5.90;99.90
37240;DHT22;23130;48.760;9.178;2023-02-01T15:50:20;5.90;99.90
37240;DHT22;23130;48.760;9.178;2023-02-01T15:52:48;5.80;99.90
37240;DHT22;23130;48.760;9.178;2023-02-01T15:55:23;5.80;99.90
37240;DHT22;23130;48.760;9.178;2023-02-01T15:57:49;5.70;99.90
37240;DHT22;23130;48.760;9.178;2023-02-01T16:00:23;5.70;99.90
37240;DHT22;23130;48.760;9.178;2023-02-01T16:02:58;5.80;99.90
37240;DHT22;23130;48.760;9.178;2023-02-01T16:05:40;5.80;99.90
37240;DHT22;23130;48.760;9.178;2023-02-01T16:08:15;5.80;99.90
37240;DHT22;23130;48.760;9.178;2023-02-01T16:10:47;5.90;99.90
37240;DHT22;23130;48.760;9.178;2023-02-01T16:13:14;5.90;99.90
37240;DHT22;23130;48.760;9.178;2023-02-01T16:15:39;5.90;99.90
37240;DHT22;23130;48.760;9.178;2023-02-01T16:18:06;5.80;99.90
37240;DHT22;23130;48.760;9.178;2023-02-01T16:20:36;5.80;99.90
37240;DHT22;23130;48.760;9.178;2023-02-01T16:23:03;5.80;99.90
37240;DHT22;23130;48.760;9.178;2023-02-01T16:25:29;5.80;99.90
37240;DHT22;23130;48.760;9.178;2023-02-01T16:27:54;5.80;99.90
37240;DHT22;23130;48.760;9.178;2023-02-01T16:30:20;5.80;99.90
37240;DHT22;23130;48.760;9.178;2023-02-01T16:32:57;5.80;99.90
37240;DHT22;23130;48.760;9.178;2023-02-01T16:35:24;5.80;99.90
37240;DHT22;23130;48.760;9.178;2023-02-01T16:37:50;5.80;99.90
37240;DHT22;23130;48.760;9.178;2023-02-01T16:40:17;5.90;99.90
37240;DHT22;23130;48.760;9.178;2023-02-01T16:42:43;5.80;99.90
37240;DHT22;23130;48.760;9.178;2023-02-01T16:45:09;5.80;99.90
37240;DHT22;23130;48.760;9.178;2023-02-01T16:47:37;5.80;99.90
37240;DHT22;23130;48.760;9.178;2023-02-01T16:50:03;5.80;99.90
37240;DHT22;23130;48.760;9.178;2023-02-01T16:52:29;5.80;99.90
37240;DHT22;23130;48.760;9.178;2023-02-01T16:54:55;5.70;99.90
37240;DHT22;23130;48.760;9.178;2023-02-01T16:57:20;5.70;99.90
37240;DHT22;23130;48.760;9.178;2023-02-01T16:59:49;5.60;99.90
37240;DHT22;23130;48.760;9.178;2023-02-01T17:02:17;5.60;99.90
37240;DHT22;23130;48.760;9.178;2023-02-01T17:04:47;5.60;99.90
37240;DHT22;23130;48.760;9.178;2023-02-01T17:07:18;5.40;99.90
37240;DHT22;23130;48.760;9.178;2023-02-01T17:09:44;5.40;99.90
37240;DHT22;23130;48.760;9.178;2023-02-01T17:12:26;5.20;99.90
37240;DHT22;23130;48.760;9.178;2023-02-01T17:14:52;5.20;99.90
37240;DHT22;23130;48.760;9.178;2023-02-01T17:17:19;5.10;99.90
37240;DHT22;23130;48.760;9.178;2023-02-01T17:19:48;5.20;99.90
37240;DHT22;23130;48.760;9.178;2023-02-01T17:22:17;5.20;99.90
37240;DHT22;23130;48.760;9.178;2023-02-01T17:24:43;5.20;99.90
37240;DHT22;23130;48.760;9.178;2023-02-01T17:27:09;5.20;99.90
37240;DHT22;23130;48.760;9.178;2023-02-01T17:29:35;5.20;99.90
37240;DHT22;23130;48.760;9.178;2023-02-01T17:32:01;5.20;99.90
37240;DHT22;23130;48.760;9.178;2023-02-01T17:34:27;5.30;99.90
37240;DHT22;23130;48.760;9.178;2023-02-01T17:36:53;5.30;99.90
37240;DHT22;23130;48.760;9.178;2023-02-01T17:39:19;5.40;99.90
37240;DHT22;23130;48.760;9.178;2023-02-01T17:42:04;5.40;99.90
37240;DHT22;23130;48.760;9.178;2023-02-01T17:44:31;5.40;99.90
37240;DHT22;23130;48.760;9.178;2023-02-01T17:46:57;5.40;99.90
37240;DHT22;23130;48.760;9.178;2023-02-01T17:49:24;5.30;99.90
37240;DHT22;23130;48.760;9.178;2023-02-01T17:51:50;5.20;99.90
37240;DHT22;23130;48.760;9.178;2023-02-01T17:54:16;5.20;99.90
37240;DHT22;23130;48.760;9.178;2023-02-01T17:56:42;5.20;99.90
37240;DHT22;23130;48.760;9.178;2023-02-01T17:59:08;5.20;99.90
37240;DHT22;23130;48.760;9.178;2023-02-01T18:01:34;5.20;99.90
37240;DHT22;23130;48.760;9.178;2023-02-01T18:03:59;5.20;99.90
37240;DHT22;23130;48.760;9.178;2023-02-01T18:06:26;5.20;99.90
37240;DHT22;23130;48.760;9.178;2023-02-01T18:08:52;5.30;99.90
37240;DHT22;23130;48.760;9.178;2023-02-01T18:11:23;5.20;99.90
37240;DHT22;23130;48.760;9.178;2023-02-01T18:13:50;5.20;99.90
37240;DHT22;23130;48.760;9.178;2023-02-01T18:16:21;5.20;99.90
37240;DHT22;23130;48.760;9.178;2023-02-01T18:18:47;5.20;99.90
37240;DHT22;23130;48.760;9.178;2023-02-01T18:21:17;5.20;99.90